sensor_id;sensor_type;location;lat;lon;timestamp;P1;durP1;ratioP1;P2;durP2;ratioP2
66139;SDS011;52945;51.908;8.364;2024-03-25T00:01:25;4.47;;;1.30;;
66139;SDS011;52945;51.908;8.364;2024-03-25T00:04:26;5.63;;;1.63;;
66139;SDS011;52945;51.908;8.364;2024-03-25T00:07:27;3.05;;;1.38;;
66139;SDS011;52945;51.908;8.364;2024-03-25T00:10:27;4.75;;;1.85;;
66139;SDS011;52945;51.908;8.364;2024-03-25T00:13:28;4.85;;;1.50;;
66139;SDS011;52945;51.908;8.364;2024-03-25T00:16:28;3.53;;;1.65;;
66139;SDS011;52945;51.908;8.364;2024-03-25T00:19:29;7.90;;;1.80;;
66139;SDS011;52945;51.908;8.364;2024-03-25T00:22:30;5.25;;;1.58;;
66139;SDS011;52945;51.908;8.364;2024-03-25T00:25:31;5.05;;;1.85;;
66139;SDS011;52945;51.908;8.364;2024-03-25T00:28:32;5.47;;;1.73;;
66139;SDS011;52945;51.908;8.364;2024-03-25T00:31:32;10.38;;;1.70;;
66139;SDS011;52945;51.908;8.364;2024-03-25T00:34:33;3.25;;;1.73;;
66139;SDS011;52945;51.908;8.364;2024-03-25T00:37:34;8.65;;;2.20;;
66139;SDS011;52945;51.908;8.364;2024-03-25T00:40:34;7.97;;;1.92;;
66139;SDS011;52945;51.908;8.364;2024-03-25T00:43:35;9.38;;;1.80;;
66139;SDS011;52945;51.908;8.364;2024-03-25T00:46:35;9.60;;;2.10;;
66139;SDS011;52945;51.908;8.364;2024-03-25T00:49:36;7.53;;;1.75;;
66139;SDS011;52945;51.908;8.364;2024-03-25T00:52:37;5.30;;;1.55;;
66139;SDS011;52945;51.908;8.364;2024-03-25T00:55:37;8.38;;;1.80;;
66139;SDS011;52945;51.908;8.364;2024-03-25T00:58:38;4.10;;;1.55;;
66139;SDS011;52945;51.908;8.364;2024-03-25T01:01:38;10.57;;;2.20;;
66139;SDS011;52945;51.908;8.364;2024-03-25T01:04:39;6.82;;;1.83;;
66139;SDS011;52945;51.908;8.364;2024-03-25T01:07:39;8.98;;;2.10;;
66139;SDS011;52945;51.908;8.364;2024-03-25T01:10:40;10.30;;;1.80;;
66139;SDS011;52945;51.908;8.364;2024-03-25T01:13:40;8.45;;;2.10;;
66139;SDS011;52945;51.908;8.364;2024-03-25T01:16:44;4.97;;;1.65;;
66139;SDS011;52945;51.908;8.364;2024-03-25T01:19:44;7.18;;;1.70;;
66139;SDS011;52945;51.908;8.364;2024-03-25T01:22:45;8.15;;;2.33;;
66139;SDS011;52945;51.908;8.364;2024-03-25T01:25:46;14.05;;;2.03;;
66139;SDS011;52945;51.908;8.364;2024-03-25T01:28:46;2.85;;;1.52;;
66139;SDS011;52945;51.908;8.364;2024-03-25T01:31:47;7.38;;;1.50;;
66139;SDS011;52945;51.908;8.364;2024-03-25T01:34:48;6.78;;;1.48;;
66139;SDS011;52945;51.908;8.364;2024-03-25T01:37:49;8.30;;;1.80;;
66139;SDS011;52945;51.908;8.364;2024-03-25T01:40:49;3.72;;;1.67;;
66139;SDS011;52945;51.908;8.364;2024-03-25T01:43:50;7.10;;;1.75;;
66139;SDS011;52945;51.908;8.364;2024-03-25T01:46:50;12.90;;;2.45;;
66139;SDS011;52945;51.908;8.364;2024-03-25T01:49:52;4.65;;;1.92;;
66139;SDS011;52945;51.908;8.364;2024-03-25T01:52:55;4.97;;;1.83;;
66139;SDS011;52945;51.908;8.364;2024-03-25T01:55:57;8.35;;;2.15;;
66139;SDS011;52945;51.908;8.364;2024-03-25T01:59:00;5.35;;;1.10;;
66139;SDS011;52945;51.908;8.364;2024-03-25T02:02:01;6.72;;;1.52;;
66139;SDS011;52945;51.908;8.364;2024-03-25T02:05:02;3.50;;;1.48;;
66139;SDS011;52945;51.908;8.364;2024-03-25T02:08:03;13.65;;;1.98;;
66139;SDS011;52945;51.908;8.364;2024-03-25T02:11:04;2.47;;;1.48;;
66139;SDS011;52945;51.908;8.364;2024-03-25T02:14:05;8.77;;;1.73;;
66139;SDS011;52945;51.908;8.364;2024-03-25T02:17:06;9.18;;;1.77;;
66139;SDS011;52945;51.908;8.364;2024-03-25T02:20:08;7.35;;;2.28;;
66139;SDS011;52945;51.908;8.364;2024-03-25T02:23:10;9.38;;;2.30;;
66139;SDS011;52945;51.908;8.364;2024-03-25T02:26:12;6.70;;;1.65;;
66139;SDS011;52945;51.908;8.364;2024-03-25T02:29:12;11.23;;;2.17;;
66139;SDS011;52945;51.908;8.364;2024-03-25T02:32:13;8.48;;;1.70;;
66139;SDS011;52945;51.908;8.364;2024-03-25T02:35:14;7.18;;;1.67;;
66139;SDS011;52945;51.908;8.364;2024-03-25T02:38:17;6.70;;;1.88;;
66139;SDS011;52945;51.908;8.364;2024-03-25T02:41:19;5.10;;;2.10;;
66139;SDS011;52945;51.908;8.364;2024-03-25T02:44:20;5.95;;;1.67;;
66139;SDS011;52945;51.908;8.364;2024-03-25T02:47:22;6.30;;;1.60;;
66139;SDS011;52945;51.908;8.364;2024-03-25T02:50:23;8.18;;;1.65;;
66139;SDS011;52945;51.908;8.364;2024-03-25T02:53:23;5.93;;;1.63;;
66139;SDS011;52945;51.908;8.364;2024-03-25T02:56:24;4.88;;;1.73;;
66139;SDS011;52945;51.908;8.364;2024-03-25T02:59:24;8.80;;;1.77;;
66139;SDS011;52945;51.908;8.364;2024-03-25T03:02:25;3.47;;;1.48;;
66139;SDS011;52945;51.908;8.364;2024-03-25T03:05:25;5.90;;;1.67;;
66139;SDS011;52945;51.908;8.364;2024-03-25T03:08:26;8.80;;;1.75;;
66139;SDS011;52945;51.908;8.364;2024-03-25T03:11:26;6.07;;;2.05;;
66139;SDS011;52945;51.908;8.364;2024-03-25T03:14:27;11.80;;;1.80;;
66139;SDS011;52945;51.908;8.364;2024-03-25T03:17:28;5.63;;;1.85;;
66139;SDS011;52945;51.908;8.364;2024-03-25T03:20:28;5.35;;;1.95;;
66139;SDS011;52945;51.908;8.364;2024-03-25T03:23:29;8.85;;;2.40;;
66139;SDS011;52945;51.908;8.364;2024-03-25T03:26:29;5.22;;;1.77;;
66139;SDS011;52945;51.908;8.364;2024-03-25T03:29:30;10.75;;;2.00;;
66139;SDS011;52945;51.908;8.364;2024-03-25T03:32:31;4.95;;;1.63;;
66139;SDS011;52945;51.908;8.364;2024-03-25T03:35:34;8.10;;;1.77;;
66139;SDS011;52945;51.908;8.364;2024-03-25T03:38:35;4.05;;;1.83;;
66139;SDS011;52945;51.908;8.364;2024-03-25T03:41:36;6.47;;;1.88;;
66139;SDS011;52945;51.908;8.364;2024-03-25T03:44:36;8.50;;;1.90;;
66139;SDS011;52945;51.908;8.364;2024-03-25T03:47:37;7.93;;;1.90;;
66139;SDS011;52945;51.908;8.364;2024-03-25T03:50:37;7.03;;;1.90;;
66139;SDS011;52945;51.908;8.364;2024-03-25T03:53:38;6.35;;;1.92;;
66139;SDS011;52945;51.908;8.364;2024-03-25T03:56:39;6.93;;;2.22;;
66139;SDS011;52945;51.908;8.364;2024-03-25T03:59:40;9.40;;;1.90;;
66139;SDS011;52945;51.908;8.364;2024-03-25T04:02:40;9.07;;;2.13;;
66139;SDS011;52945;51.908;8.364;2024-03-25T04:05:41;7.13;;;2.10;;
66139;SDS011;52945;51.908;8.364;2024-03-25T04:08:42;10.38;;;2.03;;
66139;SDS011;52945;51.908;8.364;2024-03-25T04:11:43;4.05;;;1.80;;
66139;SDS011;52945;51.908;8.364;2024-03-25T04:14:43;4.88;;;1.80;;
66139;SDS011;52945;51.908;8.364;2024-03-25T04:17:46;7.57;;;1.73;;
66139;SDS011;52945;51.908;8.364;2024-03-25T04:20:48;4.32;;;1.58;;
66139;SDS011;52945;51.908;8.364;2024-03-25T04:23:49;9.27;;;2.00;;
66139;SDS011;52945;51.908;8.364;2024-03-25T04:26:50;6.72;;;2.05;;
66139;SDS011;52945;51.908;8.364;2024-03-25T04:29:50;8.10;;;2.28;;
66139;SDS011;52945;51.908;8.364;2024-03-25T04:32:51;8.27;;;1.73;;
66139;SDS011;52945;51.908;8.364;2024-03-25T04:35:53;8.10;;;1.80;;
66139;SDS011;52945;51.908;8.364;2024-03-25T04:38:54;6.88;;;1.67;;
66139;SDS011;52945;51.908;8.364;2024-03-25T04:41:55;8.30;;;1.92;;
66139;SDS011;52945;51.908;8.364;2024-03-25T04:44:56;10.07;;;2.35;;
66139;SDS011;52945;51.908;8.364;2024-03-25T04:47:57;6.65;;;1.50;;
66139;SDS011;52945;51.908;8.364;2024-03-25T04:50:57;7.70;;;1.83;;
66139;SDS011;52945;51.908;8.364;2024-03-25T04:53:58;6.28;;;1.60;;
66139;SDS011;52945;51.908;8.364;2024-03-25T04:56:59;7.68;;;1.80;;
66139;SDS011;52945;51.908;8.364;2024-03-25T04:59:59;3.58;;;1.50;;
66139;SDS011;52945;51.908;8.364;2024-03-25T05:03:00;3.78;;;1.75;;
66139;SDS011;52945;51.908;8.364;2024-03-25T05:06:00;2.10;;;1.10;;
66139;SDS011;52945;51.908;8.364;2024-03-25T05:09:01;3.75;;;1.70;;
66139;SDS011;52945;51.908;8.364;2024-03-25T05:12:03;6.10;;;1.75;;
66139;SDS011;52945;51.908;8.364;2024-03-25T05:15:04;4.82;;;1.63;;
66139;SDS011;52945;51.908;8.364;2024-03-25T05:18:06;3.35;;;1.60;;
66139;SDS011;52945;51.908;8.364;2024-03-25T05:21:06;4.75;;;1.80;;
66139;SDS011;52945;51.908;8.364;2024-03-25T05:24:07;4.78;;;1.60;;
66139;SDS011;52945;51.908;8.364;2024-03-25T05:27:07;5.05;;;1.40;;
66139;SDS011;52945;51.908;8.364;2024-03-25T05:30:08;4.47;;;2.17;;
66139;SDS011;52945;51.908;8.364;2024-03-25T05:33:09;6.00;;;1.85;;
66139;SDS011;52945;51.908;8.364;2024-03-25T05:36:09;9.45;;;1.65;;
66139;SDS011;52945;51.908;8.364;2024-03-25T05:39:10;8.60;;;2.45;;
66139;SDS011;52945;51.908;8.364;2024-03-25T05:42:10;8.18;;;1.98;;
66139;SDS011;52945;51.908;8.364;2024-03-25T05:45:11;4.60;;;2.05;;
66139;SDS011;52945;51.908;8.364;2024-03-25T05:48:12;9.48;;;2.33;;
66139;SDS011;52945;51.908;8.364;2024-03-25T05:51:12;4.65;;;1.92;;
66139;SDS011;52945;51.908;8.364;2024-03-25T05:54:14;8.63;;;2.50;;
66139;SDS011;52945;51.908;8.364;2024-03-25T05:57:15;9.15;;;2.33;;
66139;SDS011;52945;51.908;8.364;2024-03-25T06:00:16;7.00;;;1.83;;
66139;SDS011;52945;51.908;8.364;2024-03-25T06:03:16;8.75;;;2.38;;
66139;SDS011;52945;51.908;8.364;2024-03-25T06:06:18;5.13;;;2.10;;
66139;SDS011;52945;51.908;8.364;2024-03-25T06:09:18;7.03;;;2.53;;
66139;SDS011;52945;51.908;8.364;2024-03-25T06:12:19;8.30;;;2.75;;
66139;SDS011;52945;51.908;8.364;2024-03-25T06:15:19;9.07;;;2.15;;
66139;SDS011;52945;51.908;8.364;2024-03-25T06:18:20;16.50;;;2.53;;
66139;SDS011;52945;51.908;8.364;2024-03-25T06:21:21;6.18;;;2.65;;
66139;SDS011;52945;51.908;8.364;2024-03-25T06:24:22;7.82;;;2.30;;
66139;SDS011;52945;51.908;8.364;2024-03-25T06:27:23;9.57;;;2.78;;
66139;SDS011;52945;51.908;8.364;2024-03-25T06:30:24;11.63;;;2.50;;
66139;SDS011;52945;51.908;8.364;2024-03-25T06:33:43;13.70;;;2.95;;
66139;SDS011;52945;51.908;8.364;2024-03-25T06:37:02;7.28;;;2.70;;
66139;SDS011;52945;51.908;8.364;2024-03-25T06:40:04;9.48;;;2.63;;
66139;SDS011;52945;51.908;8.364;2024-03-25T06:43:06;9.13;;;2.67;;
66139;SDS011;52945;51.908;8.364;2024-03-25T06:46:07;6.22;;;2.33;;
66139;SDS011;52945;51.908;8.364;2024-03-25T06:49:07;6.78;;;2.25;;
66139;SDS011;52945;51.908;8.364;2024-03-25T06:52:09;6.85;;;2.33;;
66139;SDS011;52945;51.908;8.364;2024-03-25T06:55:09;4.85;;;1.80;;
66139;SDS011;52945;51.908;8.364;2024-03-25T06:58:10;7.97;;;2.40;;
66139;SDS011;52945;51.908;8.364;2024-03-25T07:01:10;5.65;;;2.05;;
66139;SDS011;52945;51.908;8.364;2024-03-25T07:04:13;7.97;;;2.30;;
66139;SDS011;52945;51.908;8.364;2024-03-25T07:07:14;7.75;;;2.35;;
66139;SDS011;52945;51.908;8.364;2024-03-25T07:10:15;9.65;;;2.28;;
66139;SDS011;52945;51.908;8.364;2024-03-25T07:13:15;11.25;;;2.65;;
66139;SDS011;52945;51.908;8.364;2024-03-25T07:16:16;6.90;;;2.97;;
66139;SDS011;52945;51.908;8.364;2024-03-25T07:22:18;11.40;;;3.33;;
66139;SDS011;52945;51.908;8.364;2024-03-25T07:25:19;10.23;;;3.38;;
66139;SDS011;52945;51.908;8.364;2024-03-25T07:28:19;10.70;;;3.63;;
66139;SDS011;52945;51.908;8.364;2024-03-25T07:31:20;11.77;;;4.15;;
66139;SDS011;52945;51.908;8.364;2024-03-25T07:34:20;10.55;;;3.60;;
66139;SDS011;52945;51.908;8.364;2024-03-25T07:37:21;13.55;;;4.20;;
66139;SDS011;52945;51.908;8.364;2024-03-25T07:40:21;6.85;;;3.40;;
66139;SDS011;52945;51.908;8.364;2024-03-25T07:43:22;15.75;;;4.68;;
66139;SDS011;52945;51.908;8.364;2024-03-25T07:46:23;14.50;;;4.10;;
66139;SDS011;52945;51.908;8.364;2024-03-25T07:49:23;13.38;;;3.67;;
66139;SDS011;52945;51.908;8.364;2024-03-25T07:52:24;9.18;;;3.88;;
66139;SDS011;52945;51.908;8.364;2024-03-25T07:55:28;11.25;;;3.97;;
66139;SDS011;52945;51.908;8.364;2024-03-25T07:58:29;10.23;;;3.50;;
66139;SDS011;52945;51.908;8.364;2024-03-25T08:01:30;8.98;;;3.42;;
66139;SDS011;52945;51.908;8.364;2024-03-25T08:04:31;11.25;;;4.22;;
66139;SDS011;52945;51.908;8.364;2024-03-25T08:07:32;13.68;;;4.10;;
66139;SDS011;52945;51.908;8.364;2024-03-25T08:10:33;8.65;;;3.03;;
66139;SDS011;52945;51.908;8.364;2024-03-25T08:13:33;12.02;;;3.30;;
66139;SDS011;52945;51.908;8.364;2024-03-25T08:16:34;10.68;;;3.63;;
66139;SDS011;52945;51.908;8.364;2024-03-25T08:19:35;13.00;;;3.83;;
66139;SDS011;52945;51.908;8.364;2024-03-25T08:22:36;12.63;;;3.50;;
66139;SDS011;52945;51.908;8.364;2024-03-25T08:25:36;12.80;;;3.55;;
66139;SDS011;52945;51.908;8.364;2024-03-25T08:28:37;12.30;;;3.58;;
66139;SDS011;52945;51.908;8.364;2024-03-25T08:31:38;11.43;;;3.40;;
66139;SDS011;52945;51.908;8.364;2024-03-25T08:34:38;7.80;;;3.42;;
66139;SDS011;52945;51.908;8.364;2024-03-25T08:37:39;11.40;;;3.28;;
66139;SDS011;52945;51.908;8.364;2024-03-25T08:40:39;7.55;;;2.88;;
66139;SDS011;52945;51.908;8.364;2024-03-25T08:43:40;16.45;;;2.95;;
66139;SDS011;52945;51.908;8.364;2024-03-25T08:46:41;11.50;;;3.55;;
66139;SDS011;52945;51.908;8.364;2024-03-25T08:49:41;8.77;;;3.35;;
66139;SDS011;52945;51.908;8.364;2024-03-25T08:52:42;11.00;;;3.05;;
66139;SDS011;52945;51.908;8.364;2024-03-25T08:55:45;8.73;;;2.80;;
66139;SDS011;52945;51.908;8.364;2024-03-25T08:58:46;8.82;;;2.47;;
66139;SDS011;52945;51.908;8.364;2024-03-25T09:01:47;10.15;;;2.90;;
66139;SDS011;52945;51.908;8.364;2024-03-25T09:04:47;13.13;;;2.42;;
66139;SDS011;52945;51.908;8.364;2024-03-25T09:07:51;8.45;;;2.80;;
66139;SDS011;52945;51.908;8.364;2024-03-25T09:10:52;12.35;;;2.40;;
66139;SDS011;52945;51.908;8.364;2024-03-25T09:14:07;8.65;;;2.28;;
66139;SDS011;52945;51.908;8.364;2024-03-25T09:17:08;5.43;;;2.30;;
66139;SDS011;52945;51.908;8.364;2024-03-25T09:20:09;7.38;;;2.15;;
66139;SDS011;52945;51.908;8.364;2024-03-25T09:23:16;9.52;;;2.78;;
66139;SDS011;52945;51.908;8.364;2024-03-25T09:26:17;10.80;;;2.22;;
66139;SDS011;52945;51.908;8.364;2024-03-25T09:29:17;13.15;;;2.03;;
66139;SDS011;52945;51.908;8.364;2024-03-25T09:32:18;5.72;;;2.30;;
66139;SDS011;52945;51.908;8.364;2024-03-25T09:35:20;10.25;;;2.13;;
66139;SDS011;52945;51.908;8.364;2024-03-25T09:38:21;7.43;;;1.80;;
66139;SDS011;52945;51.908;8.364;2024-03-25T09:41:22;8.32;;;1.85;;
66139;SDS011;52945;51.908;8.364;2024-03-25T09:47:25;5.72;;;1.98;;
66139;SDS011;52945;51.908;8.364;2024-03-25T09:50:26;4.80;;;1.52;;
66139;SDS011;52945;51.908;8.364;2024-03-25T09:53:26;9.45;;;2.38;;
66139;SDS011;52945;51.908;8.364;2024-03-25T09:56:27;4.80;;;1.63;;
66139;SDS011;52945;51.908;8.364;2024-03-25T09:59:28;10.70;;;1.77;;
66139;SDS011;52945;51.908;8.364;2024-03-25T10:02:29;7.68;;;1.73;;
66139;SDS011;52945;51.908;8.364;2024-03-25T10:05:32;9.43;;;1.90;;
66139;SDS011;52945;51.908;8.364;2024-03-25T10:08:32;6.93;;;1.83;;
66139;SDS011;52945;51.908;8.364;2024-03-25T10:11:34;7.28;;;2.13;;
66139;SDS011;52945;51.908;8.364;2024-03-25T10:14:35;5.13;;;1.83;;
66139;SDS011;52945;51.908;8.364;2024-03-25T10:17:38;6.80;;;1.95;;
66139;SDS011;52945;51.908;8.364;2024-03-25T10:20:39;4.75;;;1.60;;
66139;SDS011;52945;51.908;8.364;2024-03-25T10:23:48;4.45;;;1.40;;
66139;SDS011;52945;51.908;8.364;2024-03-25T10:26:49;5.63;;;1.58;;
66139;SDS011;52945;51.908;8.364;2024-03-25T10:29:53;3.45;;;1.80;;
66139;SDS011;52945;51.908;8.364;2024-03-25T10:35:58;2.97;;;1.35;;
66139;SDS011;52945;51.908;8.364;2024-03-25T10:39:02;5.78;;;1.48;;
66139;SDS011;52945;51.908;8.364;2024-03-25T10:42:06;2.53;;;1.10;;
66139;SDS011;52945;51.908;8.364;2024-03-25T10:45:08;6.75;;;1.70;;
66139;SDS011;52945;51.908;8.364;2024-03-25T10:51:14;2.75;;;0.95;;
66139;SDS011;52945;51.908;8.364;2024-03-25T10:54:15;3.13;;;1.20;;
66139;SDS011;52945;51.908;8.364;2024-03-25T10:57:17;3.22;;;1.00;;
66139;SDS011;52945;51.908;8.364;2024-03-25T11:00:18;4.18;;;1.20;;
66139;SDS011;52945;51.908;8.364;2024-03-25T11:03:20;6.78;;;1.55;;
66139;SDS011;52945;51.908;8.364;2024-03-25T11:06:21;4.43;;;1.40;;
66139;SDS011;52945;51.908;8.364;2024-03-25T11:09:22;1.88;;;1.15;;
66139;SDS011;52945;51.908;8.364;2024-03-25T11:12:31;3.92;;;1.05;;
66139;SDS011;52945;51.908;8.364;2024-03-25T11:15:36;3.08;;;1.75;;
66139;SDS011;52945;51.908;8.364;2024-03-25T11:18:50;6.88;;;1.30;;
66139;SDS011;52945;51.908;8.364;2024-03-25T11:24:51;4.78;;;1.13;;
66139;SDS011;52945;51.908;8.364;2024-03-25T11:27:54;3.75;;;0.93;;
66139;SDS011;52945;51.908;8.364;2024-03-25T11:30:55;4.68;;;1.33;;
66139;SDS011;52945;51.908;8.364;2024-03-25T11:34:03;3.22;;;1.15;;
66139;SDS011;52945;51.908;8.364;2024-03-25T11:37:04;2.72;;;1.25;;
66139;SDS011;52945;51.908;8.364;2024-03-25T11:40:05;4.45;;;1.50;;
66139;SDS011;52945;51.908;8.364;2024-03-25T11:43:07;1.80;;;1.15;;
66139;SDS011;52945;51.908;8.364;2024-03-25T11:46:08;2.35;;;1.35;;
66139;SDS011;52945;51.908;8.364;2024-03-25T11:49:12;2.72;;;1.15;;
66139;SDS011;52945;51.908;8.364;2024-03-25T11:52:14;2.08;;;1.00;;
66139;SDS011;52945;51.908;8.364;2024-03-25T11:55:16;3.35;;;1.17;;
66139;SDS011;52945;51.908;8.364;2024-03-25T11:58:17;2.03;;;1.13;;
66139;SDS011;52945;51.908;8.364;2024-03-25T12:01:18;6.47;;;1.80;;
66139;SDS011;52945;51.908;8.364;2024-03-25T12:04:18;8.15;;;1.70;;
66139;SDS011;52945;51.908;8.364;2024-03-25T12:07:19;5.85;;;1.20;;
66139;SDS011;52945;51.908;8.364;2024-03-25T12:10:20;3.30;;;1.10;;
66139;SDS011;52945;51.908;8.364;2024-03-25T12:16:42;6.47;;;1.25;;
66139;SDS011;52945;51.908;8.364;2024-03-25T12:19:43;6.35;;;1.35;;
66139;SDS011;52945;51.908;8.364;2024-03-25T12:22:44;5.13;;;1.30;;
66139;SDS011;52945;51.908;8.364;2024-03-25T12:25:51;3.75;;;1.75;;
66139;SDS011;52945;51.908;8.364;2024-03-25T12:28:52;4.00;;;1.67;;
66139;SDS011;52945;51.908;8.364;2024-03-25T12:31:53;4.25;;;1.90;;
66139;SDS011;52945;51.908;8.364;2024-03-25T12:34:55;2.97;;;1.13;;
66139;SDS011;52945;51.908;8.364;2024-03-25T12:37:55;3.45;;;1.20;;
66139;SDS011;52945;51.908;8.364;2024-03-25T12:41:06;3.75;;;1.42;;
66139;SDS011;52945;51.908;8.364;2024-03-25T12:44:14;2.38;;;1.30;;
66139;SDS011;52945;51.908;8.364;2024-03-25T12:47:15;4.82;;;1.27;;
66139;SDS011;52945;51.908;8.364;2024-03-25T12:50:15;3.42;;;1.25;;
66139;SDS011;52945;51.908;8.364;2024-03-25T12:53:16;1.52;;;1.02;;
66139;SDS011;52945;51.908;8.364;2024-03-25T12:56:18;3.05;;;1.10;;
66139;SDS011;52945;51.908;8.364;2024-03-25T12:59:19;2.60;;;1.10;;
66139;SDS011;52945;51.908;8.364;2024-03-25T13:02:19;2.65;;;1.10;;
66139;SDS011;52945;51.908;8.364;2024-03-25T13:05:21;1.95;;;0.90;;
66139;SDS011;52945;51.908;8.364;2024-03-25T13:08:22;5.60;;;1.20;;
66139;SDS011;52945;51.908;8.364;2024-03-25T13:11:23;2.88;;;1.00;;
66139;SDS011;52945;51.908;8.364;2024-03-25T13:14:24;2.75;;;1.00;;
66139;SDS011;52945;51.908;8.364;2024-03-25T13:17:25;2.53;;;1.00;;
66139;SDS011;52945;51.908;8.364;2024-03-25T13:20:26;2.28;;;1.35;;
66139;SDS011;52945;51.908;8.364;2024-03-25T13:23:26;3.40;;;1.00;;
66139;SDS011;52945;51.908;8.364;2024-03-25T13:26:27;2.72;;;1.48;;
66139;SDS011;52945;51.908;8.364;2024-03-25T13:29:27;2.40;;;1.30;;
66139;SDS011;52945;51.908;8.364;2024-03-25T13:32:28;5.95;;;1.40;;
66139;SDS011;52945;51.908;8.364;2024-03-25T13:35:28;4.25;;;1.38;;
66139;SDS011;52945;51.908;8.364;2024-03-25T13:38:30;5.55;;;1.10;;
66139;SDS011;52945;51.908;8.364;2024-03-25T13:41:31;2.47;;;1.08;;
66139;SDS011;52945;51.908;8.364;2024-03-25T13:44:31;3.55;;;1.02;;
66139;SDS011;52945;51.908;8.364;2024-03-25T13:47:32;2.78;;;0.98;;
66139;SDS011;52945;51.908;8.364;2024-03-25T13:50:33;1.35;;;1.08;;
66139;SDS011;52945;51.908;8.364;2024-03-25T13:53:33;2.40;;;1.23;;
66139;SDS011;52945;51.908;8.364;2024-03-25T13:56:34;1.30;;;0.88;;
66139;SDS011;52945;51.908;8.364;2024-03-25T13:59:34;1.10;;;1.00;;
66139;SDS011;52945;51.908;8.364;2024-03-25T14:02:35;1.70;;;1.00;;
66139;SDS011;52945;51.908;8.364;2024-03-25T14:05:37;1.35;;;0.95;;
66139;SDS011;52945;51.908;8.364;2024-03-25T14:08:38;5.38;;;1.10;;
66139;SDS011;52945;51.908;8.364;2024-03-25T14:11:38;2.13;;;0.95;;
66139;SDS011;52945;51.908;8.364;2024-03-25T14:14:40;2.67;;;0.98;;
66139;SDS011;52945;51.908;8.364;2024-03-25T14:17:40;2.13;;;1.20;;
66139;SDS011;52945;51.908;8.364;2024-03-25T14:20:42;2.95;;;1.00;;
66139;SDS011;52945;51.908;8.364;2024-03-25T14:23:43;5.35;;;1.20;;
66139;SDS011;52945;51.908;8.364;2024-03-25T14:26:45;2.00;;;1.10;;
66139;SDS011;52945;51.908;8.364;2024-03-25T14:29:45;2.08;;;1.13;;
66139;SDS011;52945;51.908;8.364;2024-03-25T14:32:46;7.40;;;1.60;;
66139;SDS011;52945;51.908;8.364;2024-03-25T14:35:47;3.83;;;1.30;;
66139;SDS011;52945;51.908;8.364;2024-03-25T14:38:48;4.10;;;1.42;;
66139;SDS011;52945;51.908;8.364;2024-03-25T14:41:48;6.43;;;1.58;;
66139;SDS011;52945;51.908;8.364;2024-03-25T14:44:49;3.95;;;1.30;;
66139;SDS011;52945;51.908;8.364;2024-03-25T14:47:50;3.60;;;1.45;;
66139;SDS011;52945;51.908;8.364;2024-03-25T14:50:51;4.38;;;1.90;;
66139;SDS011;52945;51.908;8.364;2024-03-25T14:53:51;2.15;;;1.50;;
66139;SDS011;52945;51.908;8.364;2024-03-25T14:56:52;1.95;;;1.02;;
66139;SDS011;52945;51.908;8.364;2024-03-25T14:59:52;2.60;;;1.40;;
66139;SDS011;52945;51.908;8.364;2024-03-25T15:02:53;5.07;;;1.48;;
66139;SDS011;52945;51.908;8.364;2024-03-25T15:05:55;3.53;;;1.30;;
66139;SDS011;52945;51.908;8.364;2024-03-25T15:08:56;3.22;;;1.40;;
66139;SDS011;52945;51.908;8.364;2024-03-25T15:11:57;4.22;;;1.30;;
66139;SDS011;52945;51.908;8.364;2024-03-25T15:14:58;1.77;;;1.25;;
66139;SDS011;52945;51.908;8.364;2024-03-25T15:17:58;3.35;;;1.35;;
66139;SDS011;52945;51.908;8.364;2024-03-25T15:21:02;3.33;;;1.40;;
66139;SDS011;52945;51.908;8.364;2024-03-25T15:24:03;2.88;;;1.20;;
66139;SDS011;52945;51.908;8.364;2024-03-25T15:27:04;5.20;;;1.67;;
66139;SDS011;52945;51.908;8.364;2024-03-25T15:30:05;3.97;;;1.58;;
66139;SDS011;52945;51.908;8.364;2024-03-25T15:33:06;2.95;;;1.30;;
66139;SDS011;52945;51.908;8.364;2024-03-25T15:36:07;2.15;;;1.50;;
66139;SDS011;52945;51.908;8.364;2024-03-25T15:39:07;2.60;;;1.17;;
66139;SDS011;52945;51.908;8.364;2024-03-25T15:42:08;4.35;;;1.38;;
66139;SDS011;52945;51.908;8.364;2024-03-25T15:45:08;3.15;;;1.50;;
66139;SDS011;52945;51.908;8.364;2024-03-25T15:48:09;3.13;;;1.00;;
66139;SDS011;52945;51.908;8.364;2024-03-25T15:51:11;4.18;;;1.50;;
66139;SDS011;52945;51.908;8.364;2024-03-25T15:54:12;5.05;;;1.88;;
66139;SDS011;52945;51.908;8.364;2024-03-25T15:57:12;1.88;;;1.20;;
66139;SDS011;52945;51.908;8.364;2024-03-25T16:00:13;3.35;;;1.00;;
66139;SDS011;52945;51.908;8.364;2024-03-25T16:03:14;3.95;;;1.25;;
66139;SDS011;52945;51.908;8.364;2024-03-25T16:06:14;2.47;;;1.17;;
66139;SDS011;52945;51.908;8.364;2024-03-25T16:09:17;1.85;;;1.35;;
66139;SDS011;52945;51.908;8.364;2024-03-25T16:12:18;2.45;;;1.27;;
66139;SDS011;52945;51.908;8.364;2024-03-25T16:15:18;4.38;;;1.20;;
66139;SDS011;52945;51.908;8.364;2024-03-25T16:18:19;1.83;;;1.25;;
66139;SDS011;52945;51.908;8.364;2024-03-25T16:21:20;4.22;;;1.42;;
66139;SDS011;52945;51.908;8.364;2024-03-25T16:24:23;3.42;;;1.25;;
66139;SDS011;52945;51.908;8.364;2024-03-25T16:27:24;4.40;;;1.35;;
66139;SDS011;52945;51.908;8.364;2024-03-25T16:30:24;1.98;;;1.10;;
66139;SDS011;52945;51.908;8.364;2024-03-25T16:33:25;3.60;;;1.70;;
66139;SDS011;52945;51.908;8.364;2024-03-25T16:36:26;2.15;;;1.35;;
66139;SDS011;52945;51.908;8.364;2024-03-25T16:39:26;5.45;;;1.40;;
66139;SDS011;52945;51.908;8.364;2024-03-25T16:42:27;3.33;;;1.35;;
66139;SDS011;52945;51.908;8.364;2024-03-25T16:45:28;3.78;;;1.38;;
66139;SDS011;52945;51.908;8.364;2024-03-25T16:48:28;6.68;;;2.22;;
66139;SDS011;52945;51.908;8.364;2024-03-25T16:51:29;3.05;;;1.88;;
66139;SDS011;52945;51.908;8.364;2024-03-25T16:54:30;3.70;;;1.35;;
66139;SDS011;52945;51.908;8.364;2024-03-25T16:57:30;3.40;;;1.60;;
66139;SDS011;52945;51.908;8.364;2024-03-25T17:00:31;2.92;;;1.50;;
66139;SDS011;52945;51.908;8.364;2024-03-25T17:03:32;3.67;;;1.50;;
66139;SDS011;52945;51.908;8.364;2024-03-25T17:06:32;1.73;;;1.30;;
66139;SDS011;52945;51.908;8.364;2024-03-25T17:09:33;2.10;;;1.20;;
66139;SDS011;52945;51.908;8.364;2024-03-25T17:12:34;2.17;;;1.40;;
66139;SDS011;52945;51.908;8.364;2024-03-25T17:15:37;2.72;;;1.50;;
66139;SDS011;52945;51.908;8.364;2024-03-25T17:18:37;4.15;;;1.88;;
66139;SDS011;52945;51.908;8.364;2024-03-25T17:21:38;4.32;;;1.65;;
66139;SDS011;52945;51.908;8.364;2024-03-25T17:24:42;4.78;;;1.38;;
66139;SDS011;52945;51.908;8.364;2024-03-25T17:27:42;1.80;;;1.50;;
66139;SDS011;52945;51.908;8.364;2024-03-25T17:30:44;2.72;;;1.30;;
66139;SDS011;52945;51.908;8.364;2024-03-25T17:33:47;2.85;;;1.27;;
66139;SDS011;52945;51.908;8.364;2024-03-25T17:36:48;3.78;;;1.33;;
66139;SDS011;52945;51.908;8.364;2024-03-25T17:39:50;3.22;;;1.20;;
66139;SDS011;52945;51.908;8.364;2024-03-25T17:42:51;2.55;;;1.45;;
66139;SDS011;52945;51.908;8.364;2024-03-25T17:45:52;4.53;;;1.52;;
66139;SDS011;52945;51.908;8.364;2024-03-25T17:48:52;4.78;;;1.52;;
66139;SDS011;52945;51.908;8.364;2024-03-25T17:51:54;3.53;;;1.20;;
66139;SDS011;52945;51.908;8.364;2024-03-25T17:54:56;4.57;;;1.55;;
66139;SDS011;52945;51.908;8.364;2024-03-25T17:57:56;3.75;;;1.70;;
66139;SDS011;52945;51.908;8.364;2024-03-25T18:00:57;4.10;;;1.65;;
66139;SDS011;52945;51.908;8.364;2024-03-25T18:03:57;3.95;;;1.58;;
66139;SDS011;52945;51.908;8.364;2024-03-25T18:06:58;2.80;;;1.58;;
66139;SDS011;52945;51.908;8.364;2024-03-25T18:09:59;4.00;;;1.48;;
66139;SDS011;52945;51.908;8.364;2024-03-25T18:13:00;2.00;;;1.38;;
66139;SDS011;52945;51.908;8.364;2024-03-25T18:16:00;5.28;;;1.80;;
66139;SDS011;52945;51.908;8.364;2024-03-25T18:19:01;4.85;;;2.00;;
66139;SDS011;52945;51.908;8.364;2024-03-25T18:22:01;3.47;;;1.70;;
66139;SDS011;52945;51.908;8.364;2024-03-25T18:25:03;7.22;;;1.67;;
66139;SDS011;52945;51.908;8.364;2024-03-25T18:28:04;4.90;;;1.27;;